sensor_id;sensor_type;location;lat;lon;timestamp;temperature;humidity
36458;DHT22;22480;50.546;12.292;2023-02-15T00:01:44;-0.60;99.90
36458;DHT22;22480;50.546;12.292;2023-02-15T00:04:13;-0.70;99.90
36458;DHT22;22480;50.546;12.292;2023-02-15T00:06:40;-0.60;99.90
36458;DHT22;22480;50.546;12.292;2023-02-15T00:09:06;-0.70;99.90
36458;DHT22;22480;50.546;12.292;2023-02-15T00:11:32;-0.70;99.90
36458;DHT22;22480;50.546;12.292;2023-02-15T00:14:20;-0.60;99.90
36458;DHT22;22480;50.546;12.292;2023-02-15T00:16:47;-0.60;99.90
36458;DHT22;22480;50.546;12.292;2023-02-15T00:19:15;-0.60;99.90
36458;DHT22;22480;50.546;12.292;2023-02-15T00:21:41;-0.60;99.90
36458;DHT22;22480;50.546;12.292;2023-02-15T00:24:09;-0.60;99.90
36458;DHT22;22480;50.546;12.292;2023-02-15T00:26:38;-0.60;99.90
36458;DHT22;22480;50.546;12.292;2023-02-15T00:29:04;-0.60;99.90
36458;DHT22;22480;50.546;12.292;2023-02-15T00:31:31;-0.60;99.90
36458;DHT22;22480;50.546;12.292;2023-02-15T00:34:10;-0.60;99.90
36458;DHT22;22480;50.546;12.292;2023-02-15T00:36:36;-0.60;99.90
36458;DHT22;22480;50.546;12.292;2023-02-15T00:39:02;-0.60;99.90
36458;DHT22;22480;50.546;12.292;2023-02-15T00:41:27;-0.60;99.90
36458;DHT22;22480;50.546;12.292;2023-02-15T00:43:53;-0.60;99.90
36458;DHT22;22480;50.546;12.292;2023-02-15T00:46:19;-0.60;99.90
36458;DHT22;22480;50.546;12.292;2023-02-15T00:48:45;-0.50;99.90
36458;DHT22;22480;50.546;12.292;2023-02-15T00:51:10;-0.60;99.90
36458;DHT22;22480;50.546;12.292;2023-02-15T00:53:36;-0.60;99.90
36458;DHT22;22480;50.546;12.292;2023-02-15T00:56:02;-0.60;99.90
36458;DHT22;22480;50.546;12.292;2023-02-15T00:58:27;-0.60;99.90
36458;DHT22;22480;50.546;12.292;2023-02-15T01:00:53;-0.50;99.90
36458;DHT22;22480;50.546;12.292;2023-02-15T01:03:20;-0.60;99.90
36458;DHT22;22480;50.546;12.292;2023-02-15T01:05:47;-0.60;99.90
36458;DHT22;22480;50.546;12.292;2023-02-15T01:08:14;-0.50;99.90
36458;DHT22;22480;50.546;12.292;2023-02-15T01:10:40;-0.40;99.90
36458;DHT22;22480;50.546;12.292;2023-02-15T01:13:06;-0.30;99.90
36458;DHT22;22480;50.546;12.292;2023-02-15T01:15:34;-0.40;99.90
36458;DHT22;22480;50.546;12.292;2023-02-15T01:18:01;-0.50;99.90
36458;DHT22;22480;50.546;12.292;2023-02-15T01:20:28;-0.50;99.90
36458;DHT22;22480;50.546;12.292;2023-02-15T01:22:54;-0.60;99.90
36458;DHT22;22480;50.546;12.292;2023-02-15T01:25:23;-0.70;99.90
36458;DHT22;22480;50.546;12.292;2023-02-15T01:27:49;-0.70;99.90
36458;DHT22;22480;50.546;12.292;2023-02-15T01:30:15;-0.80;99.90
36458;DHT22;22480;50.546;12.292;2023-02-15T01:32:42;-0.90;99.90
36458;DHT22;22480;50.546;12.292;2023-02-15T01:35:09;-0.90;99.90
36458;DHT22;22480;50.546;12.292;2023-02-15T01:37:35;-1.00;99.90
36458;DHT22;22480;50.546;12.292;2023-02-15T01:40:03;-1.00;99.90
36458;DHT22;22480;50.546;12.292;2023-02-15T01:42:29;-1.10;99.90
36458;DHT22;22480;50.546;12.292;2023-02-15T01:45:03;-1.20;99.90
36458;DHT22;22480;50.546;12.292;2023-02-15T01:47:45;-1.20;99.90
36458;DHT22;22480;50.546;12.292;2023-02-15T01:50:29;-1.30;99.90
36458;DHT22;22480;50.546;12.292;2023-02-15T01:53:06;-1.40;99.90
36458;DHT22;22480;50.546;12.292;2023-02-15T01:55:38;-1.40;99.90
36458;DHT22;22480;50.546;12.292;2023-02-15T01:58:06;-1.50;99.90
36458;DHT22;22480;50.546;12.292;2023-02-15T02:00:33;-1.60;99.90
36458;DHT22;22480;50.546;12.292;2023-02-15T02:03:00;-1.70;99.90
36458;DHT22;22480;50.546;12.292;2023-02-15T02:05:27;-1.70;99.90
36458;DHT22;22480;50.546;12.292;2023-02-15T02:07:57;-1.80;99.90
36458;DHT22;22480;50.546;12.292;2023-02-15T02:10:25;-1.80;99.90
36458;DHT22;22480;50.546;12.292;2023-02-15T02:12:54;-1.80;99.90
36458;DHT22;22480;50.546;12.292;2023-02-15T02:15:23;-1.90;99.90
36458;DHT22;22480;50.546;12.292;2023-02-15T02:18:11;-1.80;99.90
36458;DHT22;22480;50.546;12.292;2023-02-15T02:20:52;-1.90;99.90
36458;DHT22;22480;50.546;12.292;2023-02-15T02:29:33;-2.00;99.90
36458;DHT22;22480;50.546;12.292;2023-02-15T02:32:18;-2.00;99.90
36458;DHT22;22480;50.546;12.292;2023-02-15T02:37:28;-2.20;99.90
36458;DHT22;22480;50.546;12.292;2023-02-15T02:40:09;-2.30;99.90
36458;DHT22;22480;50.546;12.292;2023-02-15T02:42:41;-2.30;99.90
36458;DHT22;22480;50.546;12.292;2023-02-15T02:45:35;-2.40;99.90
36458;DHT22;22480;50.546;12.292;2023-02-15T02:48:18;-2.50;99.90
36458;DHT22;22480;50.546;12.292;2023-02-15T02:50:48;-2.40;99.90
36458;DHT22;22480;50.546;12.292;2023-02-15T02:53:14;-2.40;99.90
36458;DHT22;22480;50.546;12.292;2023-02-15T02:55:47;-2.30;99.90
36458;DHT22;22480;50.546;12.292;2023-02-15T02:58:39;-2.30;99.90
36458;DHT22;22480;50.546;12.292;2023-02-15T03:01:08;-2.30;99.90
36458;DHT22;22480;50.546;12.292;2023-02-15T03:06:13;-2.40;99.90
36458;DHT22;22480;50.546;12.292;2023-02-15T03:08:48;-2.50;99.90
36458;DHT22;22480;50.546;12.292;2023-02-15T03:11:15;-2.50;99.90
36458;DHT22;22480;50.546;12.292;2023-02-15T03:13:43;-2.40;99.90
36458;DHT22;22480;50.546;12.292;2023-02-15T03:16:12;-2.40;99.90
36458;DHT22;22480;50.546;12.292;2023-02-15T03:18:55;-2.40;99.90
36458;DHT22;22480;50.546;12.292;2023-02-15T03:21:32;-2.50;99.90
36458;DHT22;22480;50.546;12.292;2023-02-15T03:24:06;-2.50;99.90
36458;DHT22;22480;50.546;12.292;2023-02-15T03:26:33;-2.50;99.90
36458;DHT22;22480;50.546;12.292;2023-02-15T03:29:00;-2.40;99.90
36458;DHT22;22480;50.546;12.292;2023-02-15T03:31:31;-2.50;99.90
36458;DHT22;22480;50.546;12.292;2023-02-15T03:34:01;-2.60;99.90
36458;DHT22;22480;50.546;12.292;2023-02-15T03:36:33;-2.50;99.90
36458;DHT22;22480;50.546;12.292;2023-02-15T03:41:41;-2.50;99.90
36458;DHT22;22480;50.546;12.292;2023-02-15T03:44:18;-2.50;99.90
36458;DHT22;22480;50.546;12.292;2023-02-15T03:46:50;-2.50;99.90
36458;DHT22;22480;50.546;12.292;2023-02-15T03:51:50;-2.40;99.90
36458;DHT22;22480;50.546;12.292;2023-02-15T03:54:24;-2.40;99.90
36458;DHT22;22480;50.546;12.292;2023-02-15T03:57:28;-2.50;99.90
36458;DHT22;22480;50.546;12.292;2023-02-15T04:00:23;-2.50;99.90
36458;DHT22;22480;50.546;12.292;2023-02-15T04:03:33;-2.50;99.90
36458;DHT22;22480;50.546;12.292;2023-02-15T04:06:02;-2.50;99.90
36458;DHT22;22480;50.546;12.292;2023-02-15T04:08:28;-2.60;99.90
36458;DHT22;22480;50.546;12.292;2023-02-15T04:11:12;-2.70;99.90
36458;DHT22;22480;50.546;12.292;2023-02-15T04:13:38;-2.90;99.90
36458;DHT22;22480;50.546;12.292;2023-02-15T04:16:04;-3.00;99.90
36458;DHT22;22480;50.546;12.292;2023-02-15T04:18:33;-3.10;99.90
36458;DHT22;22480;50.546;12.292;2023-02-15T04:21:19;-3.20;99.90
36458;DHT22;22480;50.546;12.292;2023-02-15T04:24:04;-3.20;99.90
36458;DHT22;22480;50.546;12.292;2023-02-15T04:26:48;-3.20;99.90
36458;DHT22;22480;50.546;12.292;2023-02-15T04:29:15;-3.40;99.90
36458;DHT22;22480;50.546;12.292;2023-02-15T04:31:41;-3.40;99.90
36458;DHT22;22480;50.546;12.292;2023-02-15T04:34:08;-3.40;99.90
36458;DHT22;22480;50.546;12.292;2023-02-15T04:36:35;-3.40;99.90
36458;DHT22;22480;50.546;12.292;2023-02-15T04:39:00;-3.30;99.90
36458;DHT22;22480;50.546;12.292;2023-02-15T04:41:26;-3.20;99.90
36458;DHT22;22480;50.546;12.292;2023-02-15T04:43:52;-3.20;99.90
36458;DHT22;22480;50.546;12.292;2023-02-15T04:46:17;-3.10;99.90
36458;DHT22;22480;50.546;12.292;2023-02-15T04:48:43;-3.20;99.90
36458;DHT22;22480;50.546;12.292;2023-02-15T04:51:09;-3.20;99.90
36458;DHT22;22480;50.546;12.292;2023-02-15T04:53:35;-3.20;99.90
36458;DHT22;22480;50.546;12.292;2023-02-15T04:56:01;-3.20;99.90
36458;DHT22;22480;50.546;12.292;2023-02-15T04:58:27;-3.10;99.90
36458;DHT22;22480;50.546;12.292;2023-02-15T05:00:57;-3.10;99.90
36458;DHT22;22480;50.546;12.292;2023-02-15T05:03:23;-3.10;99.90
36458;DHT22;22480;50.546;12.292;2023-02-15T05:05:49;-3.10;99.90
36458;DHT22;22480;50.546;12.292;2023-02-15T05:08:15;-3.10;99.90
36458;DHT22;22480;50.546;12.292;2023-02-15T05:10:40;-3.00;99.90
36458;DHT22;22480;50.546;12.292;2023-02-15T05:13:06;-2.90;99.90
36458;DHT22;22480;50.546;12.292;2023-02-15T05:15:32;-2.80;99.90
36458;DHT22;22480;50.546;12.292;2023-02-15T05:17:57;-2.80;99.90
36458;DHT22;22480;50.546;12.292;2023-02-15T05:20:23;-2.80;99.90
36458;DHT22;22480;50.546;12.292;2023-02-15T05:22:53;-2.80;99.90
36458;DHT22;22480;50.546;12.292;2023-02-15T05:25:19;-2.70;99.90
36458;DHT22;22480;50.546;12.292;2023-02-15T05:28:17;-2.60;99.90
36458;DHT22;22480;50.546;12.292;2023-02-15T05:31:08;-2.70;99.90
36458;DHT22;22480;50.546;12.292;2023-02-15T05:33:35;-2.70;99.90
36458;DHT22;22480;50.546;12.292;2023-02-15T05:36:01;-2.70;99.90
36458;DHT22;22480;50.546;12.292;2023-02-15T05:38:28;-2.70;99.90
36458;DHT22;22480;50.546;12.292;2023-02-15T05:40:54;-2.70;99.90
36458;DHT22;22480;50.546;12.292;2023-02-15T05:43:20;-2.80;99.90
36458;DHT22;22480;50.546;12.292;2023-02-15T05:45:50;-2.80;99.90
36458;DHT22;22480;50.546;12.292;2023-02-15T05:48:17;-2.80;99.90
36458;DHT22;22480;50.546;12.292;2023-02-15T05:50:44;-2.70;99.90
36458;DHT22;22480;50.546;12.292;2023-02-15T05:53:09;-2.70;99.90
36458;DHT22;22480;50.546;12.292;2023-02-15T05:55:39;-2.70;99.90
36458;DHT22;22480;50.546;12.292;2023-02-15T05:58:06;-2.70;99.90
36458;DHT22;22480;50.546;12.292;2023-02-15T06:00:33;-2.70;99.90
36458;DHT22;22480;50.546;12.292;2023-02-15T06:02:59;-2.70;99.90
36458;DHT22;22480;50.546;12.292;2023-02-15T06:05:25;-2.60;99.90
36458;DHT22;22480;50.546;12.292;2023-02-15T06:07:51;-2.70;99.90
36458;DHT22;22480;50.546;12.292;2023-02-15T06:10:16;-2.80;99.90
36458;DHT22;22480;50.546;12.292;2023-02-15T06:12:44;-2.70;99.90
36458;DHT22;22480;50.546;12.292;2023-02-15T06:15:09;-2.70;99.90
36458;DHT22;22480;50.546;12.292;2023-02-15T06:17:35;-2.80;99.90
36458;DHT22;22480;50.546;12.292;2023-02-15T06:20:01;-2.70;99.90
36458;DHT22;22480;50.546;12.292;2023-02-15T06:22:26;-2.70;99.90
36458;DHT22;22480;50.546;12.292;2023-02-15T06:24:52;-2.60;99.90
36458;DHT22;22480;50.546;12.292;2023-02-15T06:27:18;-2.60;99.90
36458;DHT22;22480;50.546;12.292;2023-02-15T06:29:43;-2.60;99.90
36458;DHT22;22480;50.546;12.292;2023-02-15T06:32:09;-2.70;99.90
36458;DHT22;22480;50.546;12.292;2023-02-15T06:34:35;-2.70;99.90
36458;DHT22;22480;50.546;12.292;2023-02-15T06:37:00;-2.70;99.90
36458;DHT22;22480;50.546;12.292;2023-02-15T06:39:26;-2.70;99.90
36458;DHT22;22480;50.546;12.292;2023-02-15T06:41:52;-2.60;99.90
36458;DHT22;22480;50.546;12.292;2023-02-15T06:44:17;-2.50;99.90
36458;DHT22;22480;50.546;12.292;2023-02-15T06:46:43;-2.50;99.90
36458;DHT22;22480;50.546;12.292;2023-02-15T06:49:09;-2.40;99.90
36458;DHT22;22480;50.546;12.292;2023-02-15T06:51:34;-2.40;99.90
36458;DHT22;22480;50.546;12.292;2023-02-15T06:54:00;-2.30;99.90
36458;DHT22;22480;50.546;12.292;2023-02-15T06:56:26;-2.20;99.90
36458;DHT22;22480;50.546;12.292;2023-02-15T06:58:51;-2.20;99.90
36458;DHT22;22480;50.546;12.292;2023-02-15T07:01:18;-2.10;99.90
36458;DHT22;22480;50.546;12.292;2023-02-15T07:03:44;-2.00;99.90
36458;DHT22;22480;50.546;12.292;2023-02-15T07:06:10;-2.00;99.90
36458;DHT22;22480;50.546;12.292;2023-02-15T07:08:38;-1.90;99.90
36458;DHT22;22480;50.546;12.292;2023-02-15T07:11:05;-1.90;99.90
36458;DHT22;22480;50.546;12.292;2023-02-15T07:13:50;-1.80;99.90
36458;DHT22;22480;50.546;12.292;2023-02-15T07:16:18;-1.80;99.90
36458;DHT22;22480;50.546;12.292;2023-02-15T07:18:44;-1.70;99.90
36458;DHT22;22480;50.546;12.292;2023-02-15T07:21:09;-1.70;99.90
36458;DHT22;22480;50.546;12.292;2023-02-15T07:23:39;-1.70;99.90
36458;DHT22;22480;50.546;12.292;2023-02-15T07:26:06;-1.60;99.90
36458;DHT22;22480;50.546;12.292;2023-02-15T07:28:33;-1.60;99.90
36458;DHT22;22480;50.546;12.292;2023-02-15T07:31:02;-1.50;99.90
36458;DHT22;22480;50.546;12.292;2023-02-15T07:33:29;-1.40;99.90
36458;DHT22;22480;50.546;12.292;2023-02-15T07:35:59;-1.30;99.90
36458;DHT22;22480;50.546;12.292;2023-02-15T07:38:31;-1.20;99.90
36458;DHT22;22480;50.546;12.292;2023-02-15T07:41:01;-1.10;99.90
36458;DHT22;22480;50.546;12.292;2023-02-15T07:43:29;-1.00;99.90
36458;DHT22;22480;50.546;12.292;2023-02-15T07:46:03;-1.00;99.90
36458;DHT22;22480;50.546;12.292;2023-02-15T07:48:29;-0.80;99.90
36458;DHT22;22480;50.546;12.292;2023-02-15T07:51:02;-0.70;99.90
36458;DHT22;22480;50.546;12.292;2023-02-15T07:53:28;-0.70;99.90
36458;DHT22;22480;50.546;12.292;2023-02-15T07:55:54;-0.60;99.90
36458;DHT22;22480;50.546;12.292;2023-02-15T07:58:23;-0.50;99.90
36458;DHT22;22480;50.546;12.292;2023-02-15T08:01:09;-0.50;99.90
36458;DHT22;22480;50.546;12.292;2023-02-15T08:03:34;-0.40;99.90
36458;DHT22;22480;50.546;12.292;2023-02-15T08:06:00;-0.30;99.90
36458;DHT22;22480;50.546;12.292;2023-02-15T08:08:27;-0.20;99.90
36458;DHT22;22480;50.546;12.292;2023-02-15T08:10:59;-0.20;99.90
36458;DHT22;22480;50.546;12.292;2023-02-15T08:13:45;-0.20;99.90
36458;DHT22;22480;50.546;12.292;2023-02-15T08:16:23;-0.10;99.90
36458;DHT22;22480;50.546;12.292;2023-02-15T08:18:49;0.00;99.90
36458;DHT22;22480;50.546;12.292;2023-02-15T08:21:15;0.10;99.90
36458;DHT22;22480;50.546;12.292;2023-02-15T08:23:41;0.20;99.90
36458;DHT22;22480;50.546;12.292;2023-02-15T08:26:06;0.20;99.90
36458;DHT22;22480;50.546;12.292;2023-02-15T08:28:32;0.40;99.90
36458;DHT22;22480;50.546;12.292;2023-02-15T08:31:07;0.40;99.90
36458;DHT22;22480;50.546;12.292;2023-02-15T08:33:33;0.50;99.90
36458;DHT22;22480;50.546;12.292;2023-02-15T08:36:07;0.60;99.90
36458;DHT22;22480;50.546;12.292;2023-02-15T08:38:33;0.80;99.90
36458;DHT22;22480;50.546;12.292;2023-02-15T08:43:42;0.90;99.90
36458;DHT22;22480;50.546;12.292;2023-02-15T08:46:09;1.00;99.90
36458;DHT22;22480;50.546;12.292;2023-02-15T08:48:36;1.10;99.90
36458;DHT22;22480;50.546;12.292;2023-02-15T08:51:13;1.20;99.90
36458;DHT22;22480;50.546;12.292;2023-02-15T08:53:42;1.30;99.90
36458;DHT22;22480;50.546;12.292;2023-02-15T08:56:08;1.40;99.90
36458;DHT22;22480;50.546;12.292;2023-02-15T08:58:34;1.40;99.90
36458;DHT22;22480;50.546;12.292;2023-02-15T09:01:00;1.50;99.90
36458;DHT22;22480;50.546;12.292;2023-02-15T09:03:28;1.50;99.90
36458;DHT22;22480;50.546;12.292;2023-02-15T09:06:01;1.50;99.90
36458;DHT22;22480;50.546;12.292;2023-02-15T09:08:28;1.60;99.90
36458;DHT22;22480;50.546;12.292;2023-02-15T09:10:54;1.70;99.90
36458;DHT22;22480;50.546;12.292;2023-02-15T09:13:20;1.70;99.90
36458;DHT22;22480;50.546;12.292;2023-02-15T09:15:46;1.80;99.90
36458;DHT22;22480;50.546;12.292;2023-02-15T09:18:12;1.90;99.90
36458;DHT22;22480;50.546;12.292;2023-02-15T09:20:43;2.00;99.90
36458;DHT22;22480;50.546;12.292;2023-02-15T09:23:10;2.10;99.90
36458;DHT22;22480;50.546;12.292;2023-02-15T09:25:35;2.30;99.90
36458;DHT22;22480;50.546;12.292;2023-02-15T09:28:01;2.40;99.90
36458;DHT22;22480;50.546;12.292;2023-02-15T09:30:26;2.60;99.90
36458;DHT22;22480;50.546;12.292;2023-02-15T09:32:52;2.70;99.90
36458;DHT22;22480;50.546;12.292;2023-02-15T09:35:18;2.90;99.90
36458;DHT22;22480;50.546;12.292;2023-02-15T09:37:43;3.10;99.90
36458;DHT22;22480;50.546;12.292;2023-02-15T09:40:12;3.30;99.90
36458;DHT22;22480;50.546;12.292;2023-02-15T09:45:46;4.50;99.90
36458;DHT22;22480;50.546;12.292;2023-02-15T09:53:45;6.20;99.90
36458;DHT22;22480;50.546;12.292;2023-02-15T09:56:49;6.60;99.90
36458;DHT22;22480;50.546;12.292;2023-02-15T09:59:48;6.80;99.90
36458;DHT22;22480;50.546;12.292;2023-02-15T10:02:31;7.10;99.90
36458;DHT22;22480;50.546;12.292;2023-02-15T10:05:19;7.30;99.90
36458;DHT22;22480;50.546;12.292;2023-02-15T10:18:45;8.60;99.90
36458;DHT22;22480;50.546;12.292;2023-02-15T10:21:49;8.90;99.90
36458;DHT22;22480;50.546;12.292;2023-02-15T10:24:30;9.10;99.90
36458;DHT22;22480;50.546;12.292;2023-02-15T10:27:12;9.10;99.90
36458;DHT22;22480;50.546;12.292;2023-02-15T10:29:48;9.20;99.90
36458;DHT22;22480;50.546;12.292;2023-02-15T10:32:26;9.30;99.90
36458;DHT22;22480;50.546;12.292;2023-02-15T10:35:20;9.60;99.90
36458;DHT22;22480;50.546;12.292;2023-02-15T10:38:08;9.80;99.90
36458;DHT22;22480;50.546;12.292;2023-02-15T10:46:07;10.40;90.80
36458;DHT22;22480;50.546;12.292;2023-02-15T10:51:57;9.70;91.30
36458;DHT22;22480;50.546;12.292;2023-02-15T11:07:58;10.50;78.80
36458;DHT22;22480;50.546;12.292;2023-02-15T11:13:12;10.60;80.50
36458;DHT22;22480;50.546;12.292;2023-02-15T11:16:11;11.10;75.50
36458;DHT22;22480;50.546;12.292;2023-02-15T11:18:43;11.20;71.10
36458;DHT22;22480;50.546;12.292;2023-02-15T11:23:46;11.60;68.10
36458;DHT22;22480;50.546;12.292;2023-02-15T11:26:31;11.70;69.10
36458;DHT22;22480;50.546;12.292;2023-02-15T11:29:18;11.80;66.70
36458;DHT22;22480;50.546;12.292;2023-02-15T11:31:49;11.70;69.20
36458;DHT22;22480;50.546;12.292;2023-02-15T11:34:26;11.90;68.20
36458;DHT22;22480;50.546;12.292;2023-02-15T11:36:55;12.00;69.00
36458;DHT22;22480;50.546;12.292;2023-02-15T11:39:24;12.40;66.60
36458;DHT22;22480;50.546;12.292;2023-02-15T11:41:57;12.50;66.40
36458;DHT22;22480;50.546;12.292;2023-02-15T11:46:57;12.70;65.50
36458;DHT22;22480;50.546;12.292;2023-02-15T11:49:31;12.50;67.10
36458;DHT22;22480;50.546;12.292;2023-02-15T11:51:58;12.80;65.10
36458;DHT22;22480;50.546;12.292;2023-02-15T11:54:36;13.10;68.50
36458;DHT22;22480;50.546;12.292;2023-02-15T11:57:13;13.60;64.00
36458;DHT22;22480;50.546;12.292;2023-02-15T11:59:43;14.10;67.50
36458;DHT22;22480;50.546;12.292;2023-02-15T12:02:17;14.70;63.10
36458;DHT22;22480;50.546;12.292;2023-02-15T12:04:54;14.80;58.50
36458;DHT22;22480;50.546;12.292;2023-02-15T12:07:35;14.60;59.30
36458;DHT22;22480;50.546;12.292;2023-02-15T12:12:39;14.10;61.70
36458;DHT22;22480;50.546;12.292;2023-02-15T12:15:10;13.90;60.60
36458;DHT22;22480;50.546;12.292;2023-02-15T12:17:39;13.70;63.80
36458;DHT22;22480;50.546;12.292;2023-02-15T12:22:52;13.90;60.50
36458;DHT22;22480;50.546;12.292;2023-02-15T12:25:50;14.00;63.50
36458;DHT22;22480;50.546;12.292;2023-02-15T12:28:36;14.10;61.30
36458;DHT22;22480;50.546;12.292;2023-02-15T12:31:18;14.60;63.10
36458;DHT22;22480;50.546;12.292;2023-02-15T12:33:46;14.90;62.40
36458;DHT22;22480;50.546;12.292;2023-02-15T12:36:22;15.20;65.30
36458;DHT22;22480;50.546;12.292;2023-02-15T12:39:16;15.70;57.20
36458;DHT22;22480;50.546;12.292;2023-02-15T12:41:56;15.70;55.90
36458;DHT22;22480;50.546;12.292;2023-02-15T12:44:33;15.70;58.00
36458;DHT22;22480;50.546;12.292;2023-02-15T12:47:18;15.80;56.20
36458;DHT22;22480;50.546;12.292;2023-02-15T12:50:03;15.30;55.60
36458;DHT22;22480;50.546;12.292;2023-02-15T12:52:29;15.20;65.80
36458;DHT22;22480;50.546;12.292;2023-02-15T12:54:55;15.50;59.50
36458;DHT22;22480;50.546;12.292;2023-02-15T12:57:34;15.80;60.30
36458;DHT22;22480;50.546;12.292;2023-02-15T13:07:45;16.40;56.60
36458;DHT22;22480;50.546;12.292;2023-02-15T13:13:25;16.00;58.00
36458;DHT22;22480;50.546;12.292;2023-02-15T13:16:13;16.10;57.70
36458;DHT22;22480;50.546;12.292;2023-02-15T13:18:44;15.90;54.60
36458;DHT22;22480;50.546;12.292;2023-02-15T13:21:13;16.20;54.90
36458;DHT22;22480;50.546;12.292;2023-02-15T13:23:42;16.20;54.30
36458;DHT22;22480;50.546;12.292;2023-02-15T13:26:18;16.00;57.70
36458;DHT22;22480;50.546;12.292;2023-02-15T13:28:48;16.00;55.20
36458;DHT22;22480;50.546;12.292;2023-02-15T13:31:18;16.10;55.10
36458;DHT22;22480;50.546;12.292;2023-02-15T13:33:58;16.20;55.40
36458;DHT22;22480;50.546;12.292;2023-02-15T13:44:58;14.80;57.00
36458;DHT22;22480;50.546;12.292;2023-02-15T13:55:52;15.80;56.20
36458;DHT22;22480;50.546;12.292;2023-02-15T13:58:38;15.30;57.80
36458;DHT22;22480;50.546;12.292;2023-02-15T14:11:50;16.20;59.90
36458;DHT22;22480;50.546;12.292;2023-02-15T14:20:08;16.20;61.60
36458;DHT22;22480;50.546;12.292;2023-02-15T14:22:46;16.50;66.90
36458;DHT22;22480;50.546;12.292;2023-02-15T14:25:27;17.00;61.70
36458;DHT22;22480;50.546;12.292;2023-02-15T14:28:19;17.20;57.50
36458;DHT22;22480;50.546;12.292;2023-02-15T14:30:49;17.10;57.10
36458;DHT22;22480;50.546;12.292;2023-02-15T14:35:54;17.00;57.70
36458;DHT22;22480;50.546;12.292;2023-02-15T14:43:56;16.70;60.10
36458;DHT22;22480;50.546;12.292;2023-02-15T14:46:48;16.80;55.00
36458;DHT22;22480;50.546;12.292;2023-02-15T14:49:25;16.80;58.00
36458;DHT22;22480;50.546;12.292;2023-02-15T14:52:03;16.60;56.20
36458;DHT22;22480;50.546;12.292;2023-02-15T15:05:00;16.40;58.50
36458;DHT22;22480;50.546;12.292;2023-02-15T15:10:23;16.20;58.40
36458;DHT22;22480;50.546;12.292;2023-02-15T15:12:52;16.20;59.20
36458;DHT22;22480;50.546;12.292;2023-02-15T15:17:55;16.00;57.40
36458;DHT22;22480;50.546;12.292;2023-02-15T15:20:43;15.90;58.60
36458;DHT22;22480;50.546;12.292;2023-02-15T15:25:52;15.40;59.50
36458;DHT22;22480;50.546;12.292;2023-02-15T15:31:18;14.80;57.10
36458;DHT22;22480;50.546;12.292;2023-02-15T15:50:17;12.30;64.80
36458;DHT22;22480;50.546;12.292;2023-02-15T15:52:54;11.30;66.50
36458;DHT22;22480;50.546;12.292;2023-02-15T15:55:23;10.80;67.80
36458;DHT22;22480;50.546;12.292;2023-02-15T15:58:04;10.20;72.50
36458;DHT22;22480;50.546;12.292;2023-02-15T16:00:44;9.40;80.60
36458;DHT22;22480;50.546;12.292;2023-02-15T16:03:29;8.70;87.20
36458;DHT22;22480;50.546;12.292;2023-02-15T16:05:56;8.20;93.70
36458;DHT22;22480;50.546;12.292;2023-02-15T16:08:34;7.80;96.80
36458;DHT22;22480;50.546;12.292;2023-02-15T16:11:12;7.50;98.70
36458;DHT22;22480;50.546;12.292;2023-02-15T16:13:43;7.30;99.90
36458;DHT22;22480;50.546;12.292;2023-02-15T16:16:12;7.10;99.90
36458;DHT22;22480;50.546;12.292;2023-02-15T16:18:38;7.00;99.90
36458;DHT22;22480;50.546;12.292;2023-02-15T16:21:19;6.80;99.90
36458;DHT22;22480;50.546;12.292;2023-02-15T16:29:26;6.20;99.90
36458;DHT22;22480;50.546;12.292;2023-02-15T16:32:18;6.10;99.90
36458;DHT22;22480;50.546;12.292;2023-02-15T16:35:01;5.90;99.90
36458;DHT22;22480;50.546;12.292;2023-02-15T16:37:32;5.70;99.90
36458;DHT22;22480;50.546;12.292;2023-02-15T16:39:58;5.50;99.90
36458;DHT22;22480;50.546;12.292;2023-02-15T16:42:24;5.30;99.90
36458;DHT22;22480;50.546;12.292;2023-02-15T16:45:24;5.10;99.90
36458;DHT22;22480;50.546;12.292;2023-02-15T16:47:55;4.90;99.90
36458;DHT22;22480;50.546;12.292;2023-02-15T16:50:36;4.80;99.90
36458;DHT22;22480;50.546;12.292;2023-02-15T16:53:02;4.60;99.90
36458;DHT22;22480;50.546;12.292;2023-02-15T16:55:34;4.60;99.90
36458;DHT22;22480;50.546;12.292;2023-02-15T16:58:02;4.50;99.90
36458;DHT22;22480;50.546;12.292;2023-02-15T17:00:37;4.30;99.90
36458;DHT22;22480;50.546;12.292;2023-02-15T17:03:06;4.20;99.90
36458;DHT22;22480;50.546;12.292;2023-02-15T17:05:47;4.10;99.90
36458;DHT22;22480;50.546;12.292;2023-02-15T17:08:33;4.10;99.90
36458;DHT22;22480;50.546;12.292;2023-02-15T17:13:26;3.70;99.90
36458;DHT22;22480;50.546;12.292;2023-02-15T17:21:08;3.50;99.90
36458;DHT22;22480;50.546;12.292;2023-02-15T17:23:41;3.40;99.90
36458;DHT22;22480;50.546;12.292;2023-02-15T17:26:18;3.50;99.90
36458;DHT22;22480;50.546;12.292;2023-02-15T17:28:56;3.60;99.90
36458;DHT22;22480;50.546;12.292;2023-02-15T17:31:25;3.60;99.90
36458;DHT22;22480;50.546;12.292;2023-02-15T17:33:53;3.60;99.90
36458;DHT22;22480;50.546;12.292;2023-02-15T17:36:22;3.50;99.90
36458;DHT22;22480;50.546;12.292;2023-02-15T17:38:59;3.50;99.90
36458;DHT22;22480;50.546;12.292;2023-02-15T17:41:30;3.50;99.90
36458;DHT22;22480;50.546;12.292;2023-02-15T17:43:57;3.40;99.90
36458;DHT22;22480;50.546;12.292;2023-02-15T17:46:24;3.40;99.90
36458;DHT22;22480;50.546;12.292;2023-02-15T17:48:52;3.50;99.90
36458;DHT22;22480;50.546;12.292;2023-02-15T17:51:19;3.40;99.90
36458;DHT22;22480;50.546;12.292;2023-02-15T17:53:46;3.40;99.90
36458;DHT22;22480;50.546;12.292;2023-02-15T17:56:32;3.40;99.90
36458;DHT22;22480;50.546;12.292;2023-02-15T17:58:58;3.30;99.90
36458;DHT22;22480;50.546;12.292;2023-02-15T18:01:23;3.20;99.90
36458;DHT22;22480;50.546;12.292;2023-02-15T18:04:10;3.20;99.90
36458;DHT22;22480;50.546;12.292;2023-02-15T18:06:55;3.20;99.90
36458;DHT22;22480;50.546;12.292;2023-02-15T18:09:39;3.20;99.90
36458;DHT22;22480;50.546;12.292;2023-02-15T18:12:29;3.30;99.90
36458;DHT22;22480;50.546;12.292;2023-02-15T18:14:56;3.20;99.90
36458;DHT22;22480;50.546;12.292;2023-02-15T18:20:00;3.00;99.90
36458;DHT22;22480;50.546;12.292;2023-02-15T18:22:30;2.90;99.90
36458;DHT22;22480;50.546;12.292;2023-02-15T18:24:56;2.70;99.90
36458;DHT22;22480;50.546;12.292;2023-02-15T18:27:22;2.70;99.90
36458;DHT22;22480;50.546;12.292;2023-02-15T18:29:48;2.70;99.90
36458;DHT22;22480;50.546;12.292;2023-02-15T18:32:30;2.70;99.90
36458;DHT22;22480;50.546;12.292;2023-02-15T18:34:57;2.70;99.90
36458;DHT22;22480;50.546;12.292;2023-02-15T18:37:25;2.70;99.90
36458;DHT22;22480;50.546;12.292;2023-02-15T18:39:53;2.80;99.90
36458;DHT22;22480;50.546;12.292;2023-02-15T18:44:46;2.70;99.90
36458;DHT22;22480;50.546;12.292;2023-02-15T18:47:12;2.70;99.90
36458;DHT22;22480;50.546;12.292;2023-02-15T18:49:37;2.60;99.90
36458;DHT22;22480;50.546;12.292;2023-02-15T18:52:03;2.60;99.90